Terminal Aerodrome Forecast
Issued by NWS

Home | Current Version | Previous Version | Text Only | Print | Product List | Glossary On
Versions: 1 2 3 4 5 6 7 8 9 10 11 12
922
FTUS46 KPDT 301122
TAFRDM
TAF
KRDM 301122Z 3012/0112 23007KT P6SM BKN060 BKN120
     FM301700 29015G23KT P6SM FEW050 SCT150
     FM010300 33008KT P6SM FEW120
     FM010900 17004KT P6SM SCT100=

USA.gov is the U.S. government's official web portal to all federal, state and local government web resources and services.